sensor_id;sensor_type;location;lat;lon;timestamp;temperature;humidity
76878;DHT22;65843;50.692;12.844;2023-04-09T00:00:10;18.20;58.40
76878;DHT22;65843;50.692;12.844;2023-04-09T00:01:12;18.20;58.40
76878;DHT22;65843;50.692;12.844;2023-04-09T00:02:13;18.20;58.30
76878;DHT22;65843;50.692;12.844;2023-04-09T00:03:14;18.20;58.40
76878;DHT22;65843;50.692;12.844;2023-04-09T00:04:15;18.20;57.90
76878;DHT22;65843;50.692;12.844;2023-04-09T00:05:16;18.20;58.50
76878;DHT22;65843;50.692;12.844;2023-04-09T00:06:17;18.20;58.30
76878;DHT22;65843;50.692;12.844;2023-04-09T00:07:17;18.20;58.60
76878;DHT22;65843;50.692;12.844;2023-04-09T00:08:18;18.20;58.20
76878;DHT22;65843;50.692;12.844;2023-04-09T00:09:20;18.20;58.50
76878;DHT22;65843;50.692;12.844;2023-04-09T00:10:21;18.20;58.30
76878;DHT22;65843;50.692;12.844;2023-04-09T00:11:22;18.20;58.60
76878;DHT22;65843;50.692;12.844;2023-04-09T00:12:23;18.20;58.70
76878;DHT22;65843;50.692;12.844;2023-04-09T00:13:24;18.20;58.60
76878;DHT22;65843;50.692;12.844;2023-04-09T00:14:25;18.20;58.70
76878;DHT22;65843;50.692;12.844;2023-04-09T00:15:25;18.20;58.50
76878;DHT22;65843;50.692;12.844;2023-04-09T00:16:26;18.20;58.70
76878;DHT22;65843;50.692;12.844;2023-04-09T00:17:27;18.20;58.70
76878;DHT22;65843;50.692;12.844;2023-04-09T00:18:28;18.20;58.70
76878;DHT22;65843;50.692;12.844;2023-04-09T00:19:29;18.20;58.70
76878;DHT22;65843;50.692;12.844;2023-04-09T00:20:30;18.20;58.70
76878;DHT22;65843;50.692;12.844;2023-04-09T00:21:31;18.20;58.80
76878;DHT22;65843;50.692;12.844;2023-04-09T00:22:32;18.20;58.90
76878;DHT22;65843;50.692;12.844;2023-04-09T00:23:33;18.20;58.90
76878;DHT22;65843;50.692;12.844;2023-04-09T00:24:34;18.20;58.90
76878;DHT22;65843;50.692;12.844;2023-04-09T00:25:35;18.20;58.80
76878;DHT22;65843;50.692;12.844;2023-04-09T00:26:37;18.20;58.90
76878;DHT22;65843;50.692;12.844;2023-04-09T00:27:38;18.20;58.70
76878;DHT22;65843;50.692;12.844;2023-04-09T00:28:39;18.20;58.60
76878;DHT22;65843;50.692;12.844;2023-04-09T00:29:40;18.20;58.70
76878;DHT22;65843;50.692;12.844;2023-04-09T00:30:41;18.30;58.80
76878;DHT22;65843;50.692;12.844;2023-04-09T00:31:42;18.30;58.80
76878;DHT22;65843;50.692;12.844;2023-04-09T00:32:43;18.30;59.00
76878;DHT22;65843;50.692;12.844;2023-04-09T00:33:43;18.30;59.10
76878;DHT22;65843;50.692;12.844;2023-04-09T00:34:44;18.20;59.00
76878;DHT22;65843;50.692;12.844;2023-04-09T00:35:45;18.20;59.00
76878;DHT22;65843;50.692;12.844;2023-04-09T00:36:46;18.30;58.90
76878;DHT22;65843;50.692;12.844;2023-04-09T00:37:47;18.30;59.10
76878;DHT22;65843;50.692;12.844;2023-04-09T00:38:49;18.30;58.30
76878;DHT22;65843;50.692;12.844;2023-04-09T00:39:50;18.30;58.70
76878;DHT22;65843;50.692;12.844;2023-04-09T00:40:51;18.30;58.90
76878;DHT22;65843;50.692;12.844;2023-04-09T00:41:58;18.30;58.90
76878;DHT22;65843;50.692;12.844;2023-04-09T00:43:02;18.30;58.90
76878;DHT22;65843;50.692;12.844;2023-04-09T00:44:03;18.30;59.00
76878;DHT22;65843;50.692;12.844;2023-04-09T00:45:04;18.30;59.10
76878;DHT22;65843;50.692;12.844;2023-04-09T00:46:05;18.30;59.10
76878;DHT22;65843;50.692;12.844;2023-04-09T00:47:06;18.30;59.10
76878;DHT22;65843;50.692;12.844;2023-04-09T00:48:07;18.30;58.70
76878;DHT22;65843;50.692;12.844;2023-04-09T00:49:08;18.30;59.00
76878;DHT22;65843;50.692;12.844;2023-04-09T00:50:09;18.30;58.60
76878;DHT22;65843;50.692;12.844;2023-04-09T00:51:10;18.30;59.00
76878;DHT22;65843;50.692;12.844;2023-04-09T00:52:11;18.30;59.10
76878;DHT22;65843;50.692;12.844;2023-04-09T00:53:12;18.30;58.90
76878;DHT22;65843;50.692;12.844;2023-04-09T00:54:14;18.30;59.00
76878;DHT22;65843;50.692;12.844;2023-04-09T00:55:15;18.30;59.20
76878;DHT22;65843;50.692;12.844;2023-04-09T00:56:17;18.30;59.10
76878;DHT22;65843;50.692;12.844;2023-04-09T00:57:21;18.30;59.00
76878;DHT22;65843;50.692;12.844;2023-04-09T00:58:22;18.30;58.80
76878;DHT22;65843;50.692;12.844;2023-04-09T00:59:23;18.30;58.80
76878;DHT22;65843;50.692;12.844;2023-04-09T01:00:24;18.30;58.70
76878;DHT22;65843;50.692;12.844;2023-04-09T01:01:27;18.30;58.70
76878;DHT22;65843;50.692;12.844;2023-04-09T01:02:28;18.30;58.60
76878;DHT22;65843;50.692;12.844;2023-04-09T01:03:30;18.30;58.70
76878;DHT22;65843;50.692;12.844;2023-04-09T01:04:31;18.30;58.50
76878;DHT22;65843;50.692;12.844;2023-04-09T01:06:57;18.40;58.60
76878;DHT22;65843;50.692;12.844;2023-04-09T01:08:11;18.40;58.50
76878;DHT22;65843;50.692;12.844;2023-04-09T01:10:27;18.40;58.50
76878;DHT22;65843;50.692;12.844;2023-04-09T01:12:34;18.40;58.80
76878;DHT22;65843;50.692;12.844;2023-04-09T01:13:54;18.40;58.10
76878;DHT22;65843;50.692;12.844;2023-04-09T01:15:05;18.40;57.90
76878;DHT22;65843;50.692;12.844;2023-04-09T01:16:06;18.40;58.00
76878;DHT22;65843;50.692;12.844;2023-04-09T01:17:11;18.40;58.40
76878;DHT22;65843;50.692;12.844;2023-04-09T01:18:27;18.40;58.50
76878;DHT22;65843;50.692;12.844;2023-04-09T01:19:34;18.40;58.90
76878;DHT22;65843;50.692;12.844;2023-04-09T01:20:41;18.40;58.80
76878;DHT22;65843;50.692;12.844;2023-04-09T01:21:43;18.40;58.00
76878;DHT22;65843;50.692;12.844;2023-04-09T01:27:21;18.40;58.80
76878;DHT22;65843;50.692;12.844;2023-04-09T01:28:24;18.40;59.10
76878;DHT22;65843;50.692;12.844;2023-04-09T01:29:27;18.40;58.80
76878;DHT22;65843;50.692;12.844;2023-04-09T01:30:29;18.40;58.70
76878;DHT22;65843;50.692;12.844;2023-04-09T01:31:31;18.40;58.20
76878;DHT22;65843;50.692;12.844;2023-04-09T01:32:33;18.40;58.80
76878;DHT22;65843;50.692;12.844;2023-04-09T01:33:36;18.40;58.60
76878;DHT22;65843;50.692;12.844;2023-04-09T01:34:37;18.40;59.00
76878;DHT22;65843;50.692;12.844;2023-04-09T01:35:40;18.40;59.00
76878;DHT22;65843;50.692;12.844;2023-04-09T01:36:44;18.40;59.00
76878;DHT22;65843;50.692;12.844;2023-04-09T01:37:45;18.40;59.10
76878;DHT22;65843;50.692;12.844;2023-04-09T01:38:47;18.40;59.00
76878;DHT22;65843;50.692;12.844;2023-04-09T01:39:48;18.40;59.20
76878;DHT22;65843;50.692;12.844;2023-04-09T01:40:49;18.40;59.00
76878;DHT22;65843;50.692;12.844;2023-04-09T01:41:50;18.40;59.00
76878;DHT22;65843;50.692;12.844;2023-04-09T01:42:52;18.40;59.40
76878;DHT22;65843;50.692;12.844;2023-04-09T01:43:53;18.40;58.80
76878;DHT22;65843;50.692;12.844;2023-04-09T01:44:55;18.40;58.80
76878;DHT22;65843;50.692;12.844;2023-04-09T01:45:56;18.40;58.70
76878;DHT22;65843;50.692;12.844;2023-04-09T01:46:58;18.40;58.40
76878;DHT22;65843;50.692;12.844;2023-04-09T01:48:00;18.40;57.70
76878;DHT22;65843;50.692;12.844;2023-04-09T01:49:01;18.40;59.00
76878;DHT22;65843;50.692;12.844;2023-04-09T01:50:02;18.40;59.00
76878;DHT22;65843;50.692;12.844;2023-04-09T01:51:03;18.40;59.20
76878;DHT22;65843;50.692;12.844;2023-04-09T01:52:04;18.40;59.50
76878;DHT22;65843;50.692;12.844;2023-04-09T01:53:05;18.40;58.30
76878;DHT22;65843;50.692;12.844;2023-04-09T01:54:07;18.40;58.70
76878;DHT22;65843;50.692;12.844;2023-04-09T01:55:08;18.40;58.80
76878;DHT22;65843;50.692;12.844;2023-04-09T01:56:09;18.40;59.00
76878;DHT22;65843;50.692;12.844;2023-04-09T01:57:10;18.50;58.90
76878;DHT22;65843;50.692;12.844;2023-04-09T01:58:11;18.50;58.60
76878;DHT22;65843;50.692;12.844;2023-04-09T01:59:12;18.50;58.90
76878;DHT22;65843;50.692;12.844;2023-04-09T02:00:13;18.40;57.80
76878;DHT22;65843;50.692;12.844;2023-04-09T02:02:20;18.40;58.00
76878;DHT22;65843;50.692;12.844;2023-04-09T02:03:25;18.50;58.30
76878;DHT22;65843;50.692;12.844;2023-04-09T02:04:32;18.50;58.30
76878;DHT22;65843;50.692;12.844;2023-04-09T02:05:35;18.40;59.00
76878;DHT22;65843;50.692;12.844;2023-04-09T02:07:41;18.50;57.20
76878;DHT22;65843;50.692;12.844;2023-04-09T02:08:43;18.50;58.50
76878;DHT22;65843;50.692;12.844;2023-04-09T02:09:46;18.50;57.90
76878;DHT22;65843;50.692;12.844;2023-04-09T02:10:49;18.50;57.70
76878;DHT22;65843;50.692;12.844;2023-04-09T02:11:53;18.50;56.70
76878;DHT22;65843;50.692;12.844;2023-04-09T02:12:54;18.50;56.80
76878;DHT22;65843;50.692;12.844;2023-04-09T02:13:56;18.50;57.50
76878;DHT22;65843;50.692;12.844;2023-04-09T02:14:57;18.50;59.40
76878;DHT22;65843;50.692;12.844;2023-04-09T02:16:00;18.50;59.40
76878;DHT22;65843;50.692;12.844;2023-04-09T02:17:03;18.50;59.30
76878;DHT22;65843;50.692;12.844;2023-04-09T02:18:04;18.50;59.50
76878;DHT22;65843;50.692;12.844;2023-04-09T02:19:05;18.50;59.30
76878;DHT22;65843;50.692;12.844;2023-04-09T02:20:06;18.50;59.50
76878;DHT22;65843;50.692;12.844;2023-04-09T02:21:07;18.50;59.60
76878;DHT22;65843;50.692;12.844;2023-04-09T02:22:08;18.50;59.30
76878;DHT22;65843;50.692;12.844;2023-04-09T02:23:09;18.50;59.50
76878;DHT22;65843;50.692;12.844;2023-04-09T02:24:10;18.50;59.40
76878;DHT22;65843;50.692;12.844;2023-04-09T02:25:11;18.50;59.00
76878;DHT22;65843;50.692;12.844;2023-04-09T02:26:12;18.50;59.50
76878;DHT22;65843;50.692;12.844;2023-04-09T02:27:13;18.50;59.60
76878;DHT22;65843;50.692;12.844;2023-04-09T02:28:14;18.50;59.50
76878;DHT22;65843;50.692;12.844;2023-04-09T02:29:15;18.50;59.30
76878;DHT22;65843;50.692;12.844;2023-04-09T02:30:16;18.50;59.60
76878;DHT22;65843;50.692;12.844;2023-04-09T02:31:16;18.50;59.60
76878;DHT22;65843;50.692;12.844;2023-04-09T02:32:17;18.50;59.70
76878;DHT22;65843;50.692;12.844;2023-04-09T02:33:18;18.50;59.80
76878;DHT22;65843;50.692;12.844;2023-04-09T02:34:19;18.50;59.50
76878;DHT22;65843;50.692;12.844;2023-04-09T02:35:20;18.50;59.50
76878;DHT22;65843;50.692;12.844;2023-04-09T02:36:21;18.50;58.90
76878;DHT22;65843;50.692;12.844;2023-04-09T02:37:22;18.50;59.00
76878;DHT22;65843;50.692;12.844;2023-04-09T02:38:23;18.50;59.20
76878;DHT22;65843;50.692;12.844;2023-04-09T02:39:25;18.50;59.20
76878;DHT22;65843;50.692;12.844;2023-04-09T02:40:26;18.50;58.80
76878;DHT22;65843;50.692;12.844;2023-04-09T02:41:27;18.50;58.80
76878;DHT22;65843;50.692;12.844;2023-04-09T02:42:28;18.50;59.30
76878;DHT22;65843;50.692;12.844;2023-04-09T02:43:29;18.50;58.40
76878;DHT22;65843;50.692;12.844;2023-04-09T02:44:30;18.50;59.10
76878;DHT22;65843;50.692;12.844;2023-04-09T02:45:31;18.50;58.20
76878;DHT22;65843;50.692;12.844;2023-04-09T02:46:32;18.50;59.40
76878;DHT22;65843;50.692;12.844;2023-04-09T02:47:33;18.50;58.80
76878;DHT22;65843;50.692;12.844;2023-04-09T02:48:34;18.50;58.80
76878;DHT22;65843;50.692;12.844;2023-04-09T02:49:35;18.50;59.10
76878;DHT22;65843;50.692;12.844;2023-04-09T02:50:36;18.50;58.30
76878;DHT22;65843;50.692;12.844;2023-04-09T02:51:37;18.50;59.20
76878;DHT22;65843;50.692;12.844;2023-04-09T02:52:38;18.50;58.90
76878;DHT22;65843;50.692;12.844;2023-04-09T02:53:38;18.50;59.30
76878;DHT22;65843;50.692;12.844;2023-04-09T02:54:40;18.60;59.30
76878;DHT22;65843;50.692;12.844;2023-04-09T02:55:41;18.60;59.30
76878;DHT22;65843;50.692;12.844;2023-04-09T02:56:42;18.60;59.00
76878;DHT22;65843;50.692;12.844;2023-04-09T02:57:43;18.60;58.20
76878;DHT22;65843;50.692;12.844;2023-04-09T02:58:44;18.60;58.30
76878;DHT22;65843;50.692;12.844;2023-04-09T02:59:45;18.60;58.80
76878;DHT22;65843;50.692;12.844;2023-04-09T03:00:46;18.50;58.70
76878;DHT22;65843;50.692;12.844;2023-04-09T03:01:47;18.50;58.20
76878;DHT22;65843;50.692;12.844;2023-04-09T03:02:48;18.50;58.00
76878;DHT22;65843;50.692;12.844;2023-04-09T03:03:48;18.50;59.20
76878;DHT22;65843;50.692;12.844;2023-04-09T03:04:49;18.50;59.30
76878;DHT22;65843;50.692;12.844;2023-04-09T03:05:50;18.50;59.00
76878;DHT22;65843;50.692;12.844;2023-04-09T03:06:51;18.50;59.00
76878;DHT22;65843;50.692;12.844;2023-04-09T03:07:53;18.50;59.20
76878;DHT22;65843;50.692;12.844;2023-04-09T03:08:53;18.60;58.60
76878;DHT22;65843;50.692;12.844;2023-04-09T03:09:54;18.50;57.80
76878;DHT22;65843;50.692;12.844;2023-04-09T03:10:55;18.50;58.20
76878;DHT22;65843;50.692;12.844;2023-04-09T03:11:56;18.50;58.20
76878;DHT22;65843;50.692;12.844;2023-04-09T03:12:57;18.50;58.60
76878;DHT22;65843;50.692;12.844;2023-04-09T03:13:58;18.50;57.90
76878;DHT22;65843;50.692;12.844;2023-04-09T03:14:59;18.50;59.00
76878;DHT22;65843;50.692;12.844;2023-04-09T03:16:00;18.50;58.70
76878;DHT22;65843;50.692;12.844;2023-04-09T03:17:01;18.50;58.50
76878;DHT22;65843;50.692;12.844;2023-04-09T03:18:02;18.50;58.60
76878;DHT22;65843;50.692;12.844;2023-04-09T03:19:03;18.50;58.40
76878;DHT22;65843;50.692;12.844;2023-04-09T03:20:05;18.50;58.80
76878;DHT22;65843;50.692;12.844;2023-04-09T03:21:06;18.50;58.90
76878;DHT22;65843;50.692;12.844;2023-04-09T03:22:07;18.50;58.60
76878;DHT22;65843;50.692;12.844;2023-04-09T03:23:09;18.50;59.00
76878;DHT22;65843;50.692;12.844;2023-04-09T03:24:10;18.50;58.90
76878;DHT22;65843;50.692;12.844;2023-04-09T03:25:10;18.50;59.20
76878;DHT22;65843;50.692;12.844;2023-04-09T03:26:11;18.50;59.50
76878;DHT22;65843;50.692;12.844;2023-04-09T03:27:12;18.50;59.40
76878;DHT22;65843;50.692;12.844;2023-04-09T03:28:13;18.50;59.30
76878;DHT22;65843;50.692;12.844;2023-04-09T03:29:14;18.50;59.00
76878;DHT22;65843;50.692;12.844;2023-04-09T03:30:15;18.50;58.00
76878;DHT22;65843;50.692;12.844;2023-04-09T03:31:16;18.50;58.50
76878;DHT22;65843;50.692;12.844;2023-04-09T03:32:17;18.60;58.00
76878;DHT22;65843;50.692;12.844;2023-04-09T03:33:18;18.50;58.00
76878;DHT22;65843;50.692;12.844;2023-04-09T03:34:19;18.60;58.40
76878;DHT22;65843;50.692;12.844;2023-04-09T03:35:20;18.50;58.50
76878;DHT22;65843;50.692;12.844;2023-04-09T03:36:21;18.50;57.40
76878;DHT22;65843;50.692;12.844;2023-04-09T03:37:22;18.50;58.50
76878;DHT22;65843;50.692;12.844;2023-04-09T03:38:23;18.50;58.60
76878;DHT22;65843;50.692;12.844;2023-04-09T03:39:24;18.50;58.90
76878;DHT22;65843;50.692;12.844;2023-04-09T03:40:25;18.50;59.00
76878;DHT22;65843;50.692;12.844;2023-04-09T03:41:26;18.50;57.60
76878;DHT22;65843;50.692;12.844;2023-04-09T03:42:27;18.50;58.60
76878;DHT22;65843;50.692;12.844;2023-04-09T03:43:28;18.50;58.50
76878;DHT22;65843;50.692;12.844;2023-04-09T03:44:29;18.50;59.50
76878;DHT22;65843;50.692;12.844;2023-04-09T03:45:30;18.50;59.10
76878;DHT22;65843;50.692;12.844;2023-04-09T03:46:31;18.50;59.60
76878;DHT22;65843;50.692;12.844;2023-04-09T03:47:32;18.50;59.30
76878;DHT22;65843;50.692;12.844;2023-04-09T03:48:32;18.50;59.10
76878;DHT22;65843;50.692;12.844;2023-04-09T03:49:34;18.50;59.20
76878;DHT22;65843;50.692;12.844;2023-04-09T03:50:38;18.50;58.40
76878;DHT22;65843;50.692;12.844;2023-04-09T03:51:39;18.50;58.80
76878;DHT22;65843;50.692;12.844;2023-04-09T03:52:40;18.50;59.20
76878;DHT22;65843;50.692;12.844;2023-04-09T03:53:41;18.50;58.70
76878;DHT22;65843;50.692;12.844;2023-04-09T03:54:42;18.50;59.20
76878;DHT22;65843;50.692;12.844;2023-04-09T03:55:43;18.50;59.50
76878;DHT22;65843;50.692;12.844;2023-04-09T03:56:44;18.50;59.10
76878;DHT22;65843;50.692;12.844;2023-04-09T03:57:45;18.50;59.30
76878;DHT22;65843;50.692;12.844;2023-04-09T03:58:46;18.50;59.30
76878;DHT22;65843;50.692;12.844;2023-04-09T03:59:49;18.50;58.90
76878;DHT22;65843;50.692;12.844;2023-04-09T04:00:50;18.50;59.40
76878;DHT22;65843;50.692;12.844;2023-04-09T04:01:50;18.50;59.40
76878;DHT22;65843;50.692;12.844;2023-04-09T04:02:51;18.50;59.20
76878;DHT22;65843;50.692;12.844;2023-04-09T04:03:52;18.50;59.30
76878;DHT22;65843;50.692;12.844;2023-04-09T04:04:53;18.50;59.50
76878;DHT22;65843;50.692;12.844;2023-04-09T04:05:58;18.50;60.00
76878;DHT22;65843;50.692;12.844;2023-04-09T04:07:01;18.50;59.80
76878;DHT22;65843;50.692;12.844;2023-04-09T04:08:02;18.50;59.00
76878;DHT22;65843;50.692;12.844;2023-04-09T04:09:03;18.60;59.40
76878;DHT22;65843;50.692;12.844;2023-04-09T04:10:04;18.60;59.70
76878;DHT22;65843;50.692;12.844;2023-04-09T04:11:05;18.60;59.60
76878;DHT22;65843;50.692;12.844;2023-04-09T04:12:06;18.60;59.30
76878;DHT22;65843;50.692;12.844;2023-04-09T04:13:07;18.60;59.70
76878;DHT22;65843;50.692;12.844;2023-04-09T04:14:08;18.60;59.90
76878;DHT22;65843;50.692;12.844;2023-04-09T04:15:09;18.60;60.20
76878;DHT22;65843;50.692;12.844;2023-04-09T04:16:10;18.60;60.00
76878;DHT22;65843;50.692;12.844;2023-04-09T04:17:11;18.60;60.30
76878;DHT22;65843;50.692;12.844;2023-04-09T04:18:12;18.60;60.00
76878;DHT22;65843;50.692;12.844;2023-04-09T04:19:13;18.60;59.50
76878;DHT22;65843;50.692;12.844;2023-04-09T04:20:14;18.60;60.30
76878;DHT22;65843;50.692;12.844;2023-04-09T04:21:15;18.60;59.90
76878;DHT22;65843;50.692;12.844;2023-04-09T04:22:16;18.60;60.30
76878;DHT22;65843;50.692;12.844;2023-04-09T04:23:17;18.60;59.90
76878;DHT22;65843;50.692;12.844;2023-04-09T04:24:18;18.60;60.00
76878;DHT22;65843;50.692;12.844;2023-04-09T04:25:19;18.60;60.10
76878;DHT22;65843;50.692;12.844;2023-04-09T04:26:20;18.60;60.30
76878;DHT22;65843;50.692;12.844;2023-04-09T04:27:20;18.60;60.50
76878;DHT22;65843;50.692;12.844;2023-04-09T04:28:21;18.60;60.20
76878;DHT22;65843;50.692;12.844;2023-04-09T04:29:22;18.60;60.20
76878;DHT22;65843;50.692;12.844;2023-04-09T04:30:23;18.60;59.90
76878;DHT22;65843;50.692;12.844;2023-04-09T04:31:24;18.60;60.40
76878;DHT22;65843;50.692;12.844;2023-04-09T04:32:25;18.70;60.50
76878;DHT22;65843;50.692;12.844;2023-04-09T04:33:26;18.60;59.80
76878;DHT22;65843;50.692;12.844;2023-04-09T04:34:27;18.60;60.10
76878;DHT22;65843;50.692;12.844;2023-04-09T04:35:28;18.60;60.20
76878;DHT22;65843;50.692;12.844;2023-04-09T04:36:29;18.60;60.20
76878;DHT22;65843;50.692;12.844;2023-04-09T04:37:30;18.60;60.40
76878;DHT22;65843;50.692;12.844;2023-04-09T04:38:31;18.60;60.50
76878;DHT22;65843;50.692;12.844;2023-04-09T04:39:32;18.60;60.30
76878;DHT22;65843;50.692;12.844;2023-04-09T04:40:33;18.60;60.30
76878;DHT22;65843;50.692;12.844;2023-04-09T04:41:34;18.60;60.20
76878;DHT22;65843;50.692;12.844;2023-04-09T04:42:35;18.60;60.20
76878;DHT22;65843;50.692;12.844;2023-04-09T04:43:36;18.70;60.50
76878;DHT22;65843;50.692;12.844;2023-04-09T04:44:37;18.70;60.50
76878;DHT22;65843;50.692;12.844;2023-04-09T04:45:38;18.70;60.40
76878;DHT22;65843;50.692;12.844;2023-04-09T04:46:39;18.70;60.50
76878;DHT22;65843;50.692;12.844;2023-04-09T04:47:40;18.70;59.70
76878;DHT22;65843;50.692;12.844;2023-04-09T04:48:41;18.70;60.00
76878;DHT22;65843;50.692;12.844;2023-04-09T04:49:42;18.70;59.80
76878;DHT22;65843;50.692;12.844;2023-04-09T04:50:42;18.70;60.40
76878;DHT22;65843;50.692;12.844;2023-04-09T04:51:43;18.70;59.70
76878;DHT22;65843;50.692;12.844;2023-04-09T04:52:44;18.70;60.10
76878;DHT22;65843;50.692;12.844;2023-04-09T04:53:45;18.70;60.90
76878;DHT22;65843;50.692;12.844;2023-04-09T04:54:46;18.70;61.00
76878;DHT22;65843;50.692;12.844;2023-04-09T04:55:47;18.70;61.20
76878;DHT22;65843;50.692;12.844;2023-04-09T04:56:48;18.70;60.60
76878;DHT22;65843;50.692;12.844;2023-04-09T04:57:49;18.70;60.50
76878;DHT22;65843;50.692;12.844;2023-04-09T04:58:50;18.70;60.60
76878;DHT22;65843;50.692;12.844;2023-04-09T04:59:51;18.70;60.70
76878;DHT22;65843;50.692;12.844;2023-04-09T05:00:52;18.70;59.90
76878;DHT22;65843;50.692;12.844;2023-04-09T05:01:53;18.70;59.80
76878;DHT22;65843;50.692;12.844;2023-04-09T05:02:54;18.70;59.40
76878;DHT22;65843;50.692;12.844;2023-04-09T05:03:54;18.70;59.40
76878;DHT22;65843;50.692;12.844;2023-04-09T05:04:55;18.70;59.20
76878;DHT22;65843;50.692;12.844;2023-04-09T05:05:56;18.70;59.30
76878;DHT22;65843;50.692;12.844;2023-04-09T05:06:57;18.70;59.10
76878;DHT22;65843;50.692;12.844;2023-04-09T05:07:58;18.70;59.10
76878;DHT22;65843;50.692;12.844;2023-04-09T05:08:59;18.60;59.10
76878;DHT22;65843;50.692;12.844;2023-04-09T05:10:01;18.60;59.10
76878;DHT22;65843;50.692;12.844;2023-04-09T05:11:02;18.60;59.00
76878;DHT22;65843;50.692;12.844;2023-04-09T05:12:03;18.60;59.00
76878;DHT22;65843;50.692;12.844;2023-04-09T05:13:03;18.50;58.50
76878;DHT22;65843;50.692;12.844;2023-04-09T05:14:04;18.50;58.00
76878;DHT22;65843;50.692;12.844;2023-04-09T05:15:06;18.50;57.60
76878;DHT22;65843;50.692;12.844;2023-04-09T05:16:07;18.50;55.70
76878;DHT22;65843;50.692;12.844;2023-04-09T05:17:08;18.40;55.50
76878;DHT22;65843;50.692;12.844;2023-04-09T05:18:09;18.40;55.10
76878;DHT22;65843;50.692;12.844;2023-04-09T05:19:10;18.40;54.40
76878;DHT22;65843;50.692;12.844;2023-04-09T05:20:11;18.30;54.20
76878;DHT22;65843;50.692;12.844;2023-04-09T05:21:12;18.30;54.60
76878;DHT22;65843;50.692;12.844;2023-04-09T05:22:13;18.30;54.70
76878;DHT22;65843;50.692;12.844;2023-04-09T05:23:13;18.20;54.70
76878;DHT22;65843;50.692;12.844;2023-04-09T05:24:15;18.20;54.50
76878;DHT22;65843;50.692;12.844;2023-04-09T05:25:16;18.20;54.60
76878;DHT22;65843;50.692;12.844;2023-04-09T05:26:17;18.20;54.60
76878;DHT22;65843;50.692;12.844;2023-04-09T05:27:18;18.20;54.70
76878;DHT22;65843;50.692;12.844;2023-04-09T05:28:20;18.10;54.40
76878;DHT22;65843;50.692;12.844;2023-04-09T05:29:21;18.10;54.40
76878;DHT22;65843;50.692;12.844;2023-04-09T05:30:22;18.10;54.10
76878;DHT22;65843;50.692;12.844;2023-04-09T05:31:23;18.10;54.50
76878;DHT22;65843;50.692;12.844;2023-04-09T05:32:24;18.10;54.30
76878;DHT22;65843;50.692;12.844;2023-04-09T05:33:25;18.10;54.20
76878;DHT22;65843;50.692;12.844;2023-04-09T05:34:26;18.10;54.20
76878;DHT22;65843;50.692;12.844;2023-04-09T05:35:26;18.00;54.20
76878;DHT22;65843;50.692;12.844;2023-04-09T05:36:27;18.00;54.50
76878;DHT22;65843;50.692;12.844;2023-04-09T05:37:28;18.00;54.20
76878;DHT22;65843;50.692;12.844;2023-04-09T05:38:29;18.00;54.60
76878;DHT22;65843;50.692;12.844;2023-04-09T05:39:31;18.00;54.40
76878;DHT22;65843;50.692;12.844;2023-04-09T05:40:32;18.00;54.40
76878;DHT22;65843;50.692;12.844;2023-04-09T05:41:33;18.00;54.40
76878;DHT22;65843;50.692;12.844;2023-04-09T05:42:36;18.00;54.50
76878;DHT22;65843;50.692;12.844;2023-04-09T05:43:37;18.00;54.40
76878;DHT22;65843;50.692;12.844;2023-04-09T05:44:38;18.00;54.40
76878;DHT22;65843;50.692;12.844;2023-04-09T05:45:39;18.00;54.30
76878;DHT22;65843;50.692;12.844;2023-04-09T05:46:40;18.00;54.10
76878;DHT22;65843;50.692;12.844;2023-04-09T05:47:41;18.00;54.20
76878;DHT22;65843;50.692;12.844;2023-04-09T05:48:42;18.00;54.20
76878;DHT22;65843;50.692;12.844;2023-04-09T05:49:44;18.00;54.10
76878;DHT22;65843;50.692;12.844;2023-04-09T05:50:51;17.90;54.30
76878;DHT22;65843;50.692;12.844;2023-04-09T05:51:52;17.90;54.20
76878;DHT22;65843;50.692;12.844;2023-04-09T05:52:53;17.90;54.10
76878;DHT22;65843;50.692;12.844;2023-04-09T05:53:53;17.90;52.90
76878;DHT22;65843;50.692;12.844;2023-04-09T05:54:54;17.80;50.80
76878;DHT22;65843;50.692;12.844;2023-04-09T05:55:55;17.80;48.30
76878;DHT22;65843;50.692;12.844;2023-04-09T05:56:56;17.80;46.10
76878;DHT22;65843;50.692;12.844;2023-04-09T05:57:57;17.60;46.20
76878;DHT22;65843;50.692;12.844;2023-04-09T05:58:58;17.50;45.30
76878;DHT22;65843;50.692;12.844;2023-04-09T05:59:59;17.50;45.40
76878;DHT22;65843;50.692;12.844;2023-04-09T06:01:00;17.40;44.60
76878;DHT22;65843;50.692;12.844;2023-04-09T06:02:01;17.30;44.10
76878;DHT22;65843;50.692;12.844;2023-04-09T06:03:03;17.20;44.00
76878;DHT22;65843;50.692;12.844;2023-04-09T06:04:03;17.10;43.50
76878;DHT22;65843;50.692;12.844;2023-04-09T06:05:04;17.00;43.40
76878;DHT22;65843;50.692;12.844;2023-04-09T06:06:05;17.00;43.40
76878;DHT22;65843;50.692;12.844;2023-04-09T06:07:06;16.90;43.30
76878;DHT22;65843;50.692;12.844;2023-04-09T06:08:07;16.80;43.00
76878;DHT22;65843;50.692;12.844;2023-04-09T06:09:08;16.70;42.90
76878;DHT22;65843;50.692;12.844;2023-04-09T06:10:09;16.70;42.50
76878;DHT22;65843;50.692;12.844;2023-04-09T06:11:10;16.60;42.60
76878;DHT22;65843;50.692;12.844;2023-04-09T06:12:12;16.60;42.60
76878;DHT22;65843;50.692;12.844;2023-04-09T06:13:13;16.50;42.40
76878;DHT22;65843;50.692;12.844;2023-04-09T06:14:14;16.40;42.50
76878;DHT22;65843;50.692;12.844;2023-04-09T06:15:17;16.40;42.20
76878;DHT22;65843;50.692;12.844;2023-04-09T06:16:18;16.40;42.40
76878;DHT22;65843;50.692;12.844;2023-04-09T06:17:20;16.40;42.50
76878;DHT22;65843;50.692;12.844;2023-04-09T06:18:21;16.30;42.70
76878;DHT22;65843;50.692;12.844;2023-04-09T06:19:22;16.20;42.50
76878;DHT22;65843;50.692;12.844;2023-04-09T06:20:23;16.20;42.10
76878;DHT22;65843;50.692;12.844;2023-04-09T06:21:24;16.10;42.30
76878;DHT22;65843;50.692;12.844;2023-04-09T06:22:25;16.10;42.20
76878;DHT22;65843;50.692;12.844;2023-04-09T06:23:25;16.10;42.60
76878;DHT22;65843;50.692;12.844;2023-04-09T06:24:26;16.10;42.30
76878;DHT22;65843;50.692;12.844;2023-04-09T06:25:27;16.00;42.20
76878;DHT22;65843;50.692;12.844;2023-04-09T06:26:28;16.00;42.20
76878;DHT22;65843;50.692;12.844;2023-04-09T06:27:29;16.00;42.20
76878;DHT22;65843;50.692;12.844;2023-04-09T06:28:30;16.00;42.00
76878;DHT22;65843;50.692;12.844;2023-04-09T06:29:31;16.00;42.10
76878;DHT22;65843;50.692;12.844;2023-04-09T06:30:32;16.00;42.10
76878;DHT22;65843;50.692;12.844;2023-04-09T06:31:35;15.90;41.90